Time,TemperatureF,DewpointF,PressureIn,WindDirection,WindDirectionDegrees,WindSpeedMPH,WindSpeedGustMPH,Humidity,HourlyPrecipIn,Conditions,Clouds,dailyrainin,SoftwareType,DateUTC
2013-02-24 00:00:00,15.8,10.5,30.02,North,0,0.0,0.0,79,0.00,,,0.00,WUHU21623XXSP,2013-02-24 06:00:00,
2013-02-24 00:05:00,15.8,10.5,30.02,North,0,0.0,0.0,79,0.00,,,0.00,WUHU21623XXSP,2013-02-24 06:05:00,
2013-02-24 00:12:00,15.6,10.6,30.02,North,0,0.0,0.0,80,0.00,,,0.00,WUHU21623XXSP,2013-02-24 06:12:00,
2013-02-24 00:17:00,15.4,10.4,30.02,North,0,0.0,0.0,80,0.00,,,0.00,WUHU21623XXSP,2013-02-24 06:17:00,
2013-02-24 00:22:00,15.3,10.2,30.03,North,0,0.0,0.0,80,0.00,,,0.00,WUHU21623XXSP,2013-02-24 06:22:00,
2013-02-24 00:27:00,15.1,10.0,30.03,North,0,0.0,0.0,80,0.00,,,0.00,WUHU21623XXSP,2013-02-24 06:27:00,
2013-02-24 00:32:00,15.1,10.0,30.03,North,0,0.0,0.0,80,0.00,,,0.00,WUHU21623XXSP,2013-02-24 06:32:00,
2013-02-24 00:37:00,14.9,9.9,30.03,North,0,0.0,0.0,80,0.00,,,0.00,WUHU21623XXSP,2013-02-24 06:37:00,
2013-02-24 00:42:00,14.9,9.9,30.04,North,0,0.0,0.0,80,0.00,,,0.00,WUHU21623XXSP,2013-02-24 06:42:00,
2013-02-24 00:47:00,14.7,9.7,30.04,North,0,0.0,0.0,80,0.00,,,0.00,WUHU21623XXSP,2013-02-24 06:47:00,
2013-02-24 00:52:00,14.7,9.7,30.04,North,0,0.0,0.0,80,0.00,,,0.00,WUHU21623XXSP,2013-02-24 06:52:00,
2013-02-24 00:57:00,14.7,9.7,30.04,North,0,0.0,0.0,80,0.00,,,0.00,WUHU21623XXSP,2013-02-24 06:57:00,
2013-02-24 01:02:00,14.7,9.7,30.04,North,0,0.0,0.0,80,0.00,,,0.00,WUHU21623XXSP,2013-02-24 07:02:00,
2013-02-24 01:12:00,14.4,9.5,30.04,North,0,0.0,0.0,80,0.00,,,0.00,WUHU21623XXSP,2013-02-24 07:12:00,
2013-02-24 01:17:00,14.2,9.1,30.05,North,0,0.0,0.0,80,0.00,,,0.00,WUHU21623XXSP,2013-02-24 07:17:00,
2013-02-24 01:22:00,14.2,9.1,30.05,North,0,0.0,0.0,80,0.00,,,0.00,WUHU21623XXSP,2013-02-24 07:22:00,
2013-02-24 01:27:00,14.2,9.1,30.05,North,0,0.0,0.0,80,0.00,,,0.00,WUHU21623XXSP,2013-02-24 07:27:00,
2013-02-24 01:32:00,14.2,9.1,30.04,North,0,0.0,0.0,80,0.00,,,0.00,WUHU21623XXSP,2013-02-24 07:32:00,
2013-02-24 01:37:00,13.8,8.8,30.04,North,0,0.0,0.0,80,0.00,,,0.00,WUHU21623XXSP,2013-02-24 07:37:00,
2013-02-24 01:42:00,13.8,9.1,30.04,North,0,0.0,0.0,81,0.00,,,0.00,WUHU21623XXSP,2013-02-24 07:42:00,
2013-02-24 01:47:00,13.8,9.1,30.04,North,0,0.0,0.0,81,0.00,,,0.00,WUHU21623XXSP,2013-02-24 07:47:00,
2013-02-24 01:52:00,13.6,8.9,30.04,North,0,0.0,0.0,81,0.00,,,0.00,WUHU21623XXSP,2013-02-24 07:52:00,
2013-02-24 01:57:00,13.6,8.6,30.04,North,0,0.0,0.0,80,0.00,,,0.00,WUHU21623XXSP,2013-02-24 07:57:00,
2013-02-24 02:02:00,13.6,8.9,30.04,North,0,0.0,0.0,81,0.00,,,0.00,WUHU21623XXSP,2013-02-24 08:02:00,
2013-02-24 02:07:00,13.3,8.5,30.05,North,0,0.0,0.0,81,0.00,,,0.00,WUHU21623XXSP,2013-02-24 08:07:00,
2013-02-24 02:12:00,13.3,8.5,30.04,North,0,0.0,0.0,81,0.00,,,0.00,WUHU21623XXSP,2013-02-24 08:12:00,
2013-02-24 02:17:00,13.3,8.5,30.04,North,0,0.0,0.0,81,0.00,,,0.00,WUHU21623XXSP,2013-02-24 08:17:00,
2013-02-24 02:22:00,13.1,8.3,30.04,North,0,0.0,0.0,81,0.00,,,0.00,WUHU21623XXSP,2013-02-24 08:22:00,
2013-02-24 02:27:00,12.9,8.1,30.04,North,0,0.0,0.0,81,0.00,,,0.00,WUHU21623XXSP,2013-02-24 08:27:00,
2013-02-24 02:32:00,12.9,8.1,30.04,North,0,0.0,0.0,81,0.00,,,0.00,WUHU21623XXSP,2013-02-24 08:32:00,
2013-02-24 02:37:00,12.7,8.0,30.04,North,0,0.0,0.0,81,0.00,,,0.00,WUHU21623XXSP,2013-02-24 08:37:00,
2013-02-24 02:42:00,12.7,8.0,30.03,North,0,0.0,0.0,81,0.00,,,0.00,WUHU21623XXSP,2013-02-24 08:42:00,
2013-02-24 02:47:00,12.7,8.0,30.03,North,0,0.0,0.0,81,0.00,,,0.00,WUHU21623XXSP,2013-02-24 08:47:00,
2013-02-24 02:52:00,12.6,7.8,30.03,North,0,0.0,0.0,81,0.00,,,0.00,WUHU21623XXSP,2013-02-24 08:52:00,
2013-02-24 02:57:00,12.4,7.6,30.03,North,0,0.0,0.0,81,0.00,,,0.00,WUHU21623XXSP,2013-02-24 08:57:00,
2013-02-24 03:02:00,12.4,7.6,30.03,North,0,0.0,0.0,81,0.00,,,0.00,WUHU21623XXSP,2013-02-24 09:02:00,
2013-02-24 03:07:00,12.4,7.6,30.03,North,0,0.0,0.0,81,0.00,,,0.00,WUHU21623XXSP,2013-02-24 09:07:00,
2013-02-24 03:12:00,12.2,7.4,30.04,North,0,0.0,0.0,81,0.00,,,0.00,WUHU21623XXSP,2013-02-24 09:12:00,
2013-02-24 03:17:00,12.2,7.4,30.03,North,0,0.0,0.0,81,0.00,,,0.00,WUHU21623XXSP,2013-02-24 09:17:00,
2013-02-24 03:22:00,12.0,7.3,30.03,North,0,0.0,0.0,81,0.00,,,0.00,WUHU21623XXSP,2013-02-24 09:22:00,
2013-02-24 03:27:00,12.0,7.3,30.03,North,0,0.0,0.0,81,0.00,,,0.00,WUHU21623XXSP,2013-02-24 09:27:00,
2013-02-24 03:32:00,12.0,7.3,30.04,North,0,0.0,0.0,81,0.00,,,0.00,WUHU21623XXSP,2013-02-24 09:32:00,
2013-02-24 03:37:00,11.8,7.1,30.04,North,0,0.0,0.0,81,0.00,,,0.00,WUHU21623XXSP,2013-02-24 09:37:00,
2013-02-24 03:42:00,11.8,7.1,30.04,North,0,0.0,0.0,81,0.00,,,0.00,WUHU21623XXSP,2013-02-24 09:42:00,
2013-02-24 03:47:00,11.8,7.1,30.03,North,0,0.0,0.0,81,0.00,,,0.00,WUHU21623XXSP,2013-02-24 09:47:00,
2013-02-24 03:52:00,11.7,6.9,30.03,North,0,0.0,0.0,81,0.00,,,0.00,WUHU21623XXSP,2013-02-24 09:52:00,
2013-02-24 03:57:00,11.7,6.9,30.04,North,0,0.0,0.0,81,0.00,,,0.00,WUHU21623XXSP,2013-02-24 09:57:00,
2013-02-24 04:02:00,11.7,6.9,30.03,North,0,0.0,0.0,81,0.00,,,0.00,WUHU21623XXSP,2013-02-24 10:02:00,
2013-02-24 04:07:00,11.5,6.7,30.04,North,0,0.0,0.0,81,0.00,,,0.00,WUHU21623XXSP,2013-02-24 10:07:00,
2013-02-24 04:12:00,11.5,7.0,30.04,North,0,0.0,0.0,82,0.00,,,0.00,WUHU21623XXSP,2013-02-24 10:12:00,
2013-02-24 04:17:00,11.5,7.0,30.05,North,0,0.0,0.0,82,0.00,,,0.00,WUHU21623XXSP,2013-02-24 10:17:00,
2013-02-24 04:23:00,11.5,7.0,30.04,North,0,0.0,0.0,82,0.00,,,0.00,WUHU21623XXSP,2013-02-24 10:23:00,
2013-02-24 04:28:00,11.3,6.8,30.04,North,0,0.0,0.0,82,0.00,,,0.00,WUHU21623XXSP,2013-02-24 10:28:00,
2013-02-24 04:33:00,11.3,6.8,30.05,North,0,0.0,0.0,82,0.00,,,0.00,WUHU21623XXSP,2013-02-24 10:33:00,
2013-02-24 04:38:00,11.3,6.8,30.05,North,0,0.0,0.0,82,0.00,,,0.00,WUHU21623XXSP,2013-02-24 10:38:00,
2013-02-24 04:43:00,11.1,6.6,30.05,North,0,0.0,0.0,82,0.00,,,0.00,WUHU21623XXSP,2013-02-24 10:43:00,
2013-02-24 04:48:00,11.1,6.6,30.05,North,0,0.0,0.0,82,0.00,,,0.00,WUHU21623XXSP,2013-02-24 10:48:00,
2013-02-24 04:53:00,11.1,6.6,30.06,North,0,0.0,0.0,82,0.00,,,0.00,WUHU21623XXSP,2013-02-24 10:53:00,
2013-02-24 04:58:00,11.1,6.6,30.05,North,0,0.0,0.0,82,0.00,,,0.00,WUHU21623XXSP,2013-02-24 10:58:00,
2013-02-24 05:03:00,11.1,6.6,30.06,North,0,0.0,0.0,82,0.00,,,0.00,WUHU21623XXSP,2013-02-24 11:03:00,
2013-02-24 05:08:00,11.1,6.6,30.06,North,0,0.0,0.0,82,0.00,,,0.00,WUHU21623XXSP,2013-02-24 11:08:00,
2013-02-24 05:13:00,11.1,6.4,30.06,North,0,0.0,0.0,82,0.00,,,0.00,WUHU21623XXSP,2013-02-24 11:13:00,
2013-02-24 05:18:00,10.9,6.4,30.06,North,0,0.0,0.0,82,0.00,,,0.00,WUHU21623XXSP,2013-02-24 11:18:00,
2013-02-24 05:23:00,10.9,6.4,30.06,North,0,0.0,0.0,82,0.00,,,0.00,WUHU21623XXSP,2013-02-24 11:23:00,
2013-02-24 05:28:00,10.8,6.0,30.06,North,0,0.0,0.0,81,0.00,,,0.00,WUHU21623XXSP,2013-02-24 11:28:00,
2013-02-24 05:33:00,10.8,6.0,30.07,North,0,0.0,0.0,81,0.00,,,0.00,WUHU21623XXSP,2013-02-24 11:33:00,
2013-02-24 05:38:00,10.8,6.0,30.06,North,0,0.0,0.0,81,0.00,,,0.00,WUHU21623XXSP,2013-02-24 11:38:00,
2013-02-24 05:43:00,10.6,5.8,30.06,North,0,0.0,0.0,81,0.00,,,0.00,WUHU21623XXSP,2013-02-24 11:43:00,
2013-02-24 05:48:00,10.6,5.8,30.06,North,0,0.0,0.0,81,0.00,,,0.00,WUHU21623XXSP,2013-02-24 11:48:00,
2013-02-24 05:53:00,10.6,5.8,30.07,North,0,0.0,0.0,81,0.00,,,0.00,WUHU21623XXSP,2013-02-24 11:53:00,
2013-02-24 05:58:00,10.2,5.4,30.07,North,0,0.0,0.0,81,0.00,,,0.00,WUHU21623XXSP,2013-02-24 11:58:00,
2013-02-24 06:03:00,10.2,5.4,30.07,North,0,0.0,0.0,81,0.00,,,0.00,WUHU21623XXSP,2013-02-24 12:03:00,
2013-02-24 06:08:00,10.2,5.4,30.07,North,0,0.0,0.0,81,0.00,,,0.00,WUHU21623XXSP,2013-02-24 12:08:00,
2013-02-24 06:13:00,10.0,5.3,30.08,North,0,0.0,0.0,81,0.00,,,0.00,WUHU21623XXSP,2013-02-24 12:13:00,
2013-02-24 06:18:00,10.0,5.6,30.08,North,0,0.0,0.0,82,0.00,,,0.00,WUHU21623XXSP,2013-02-24 12:18:00,
2013-02-24 06:23:00,10.0,5.6,30.07,North,0,0.0,0.0,82,0.00,,,0.00,WUHU21623XXSP,2013-02-24 12:23:00,
2013-02-24 06:28:00,10.0,5.6,30.07,North,0,0.0,0.0,82,0.00,,,0.00,WUHU21623XXSP,2013-02-24 12:28:00,
2013-02-24 06:33:00,10.0,5.6,30.07,North,0,0.0,0.0,82,0.00,,,0.00,WUHU21623XXSP,2013-02-24 12:33:00,
2013-02-24 06:38:00,9.9,5.6,30.07,North,0,0.0,0.0,82,0.00,,,0.00,WUHU21623XXSP,2013-02-24 12:38:00,
2013-02-24 06:43:00,9.7,5.4,30.07,North,0,0.0,0.0,82,0.00,,,0.00,WUHU21623XXSP,2013-02-24 12:43:00,
2013-02-24 06:48:00,9.7,5.2,30.08,North,0,0.0,0.0,82,0.00,,,0.00,WUHU21623XXSP,2013-02-24 12:48:00,
2013-02-24 06:53:00,9.7,5.2,30.07,North,0,0.0,0.0,82,0.00,,,0.00,WUHU21623XXSP,2013-02-24 12:53:00,
2013-02-24 06:58:00,9.7,5.2,30.07,North,0,0.0,0.0,82,0.00,,,0.00,WUHU21623XXSP,2013-02-24 12:58:00,
2013-02-24 07:03:00,9.7,5.2,30.07,North,0,0.0,0.0,82,0.00,,,0.00,WUHU21623XXSP,2013-02-24 13:03:00,
2013-02-24 07:08:00,9.9,5.4,30.07,North,0,0.0,0.0,82,0.00,,,0.00,WUHU21623XXSP,2013-02-24 13:08:00,
2013-02-24 07:13:00,10.0,5.2,30.08,North,0,0.0,0.0,82,0.00,,,0.00,WUHU21623XXSP,2013-02-24 13:13:00,
2013-02-24 07:18:00,10.0,5.6,30.08,North,0,0.0,0.0,82,0.00,,,0.00,WUHU21623XXSP,2013-02-24 13:18:00,
2013-02-24 07:23:00,10.2,5.7,30.08,North,0,0.0,0.0,82,0.00,,,0.00,WUHU21623XXSP,2013-02-24 13:23:00,
2013-02-24 07:28:00,10.6,6.1,30.08,North,0,0.0,0.0,82,0.00,,,0.00,WUHU21623XXSP,2013-02-24 13:28:00,
2013-02-24 07:33:00,10.9,6.4,30.09,North,0,0.0,0.0,82,0.00,,,0.00,WUHU21623XXSP,2013-02-24 13:33:00,
2013-02-24 07:38:00,11.3,6.8,30.09,North,0,0.0,0.0,82,0.00,,,0.00,WUHU21623XXSP,2013-02-24 13:38:00,
2013-02-24 07:43:00,11.7,7.2,30.09,North,0,0.0,0.0,82,0.00,,,0.00,WUHU21623XXSP,2013-02-24 13:43:00,
2013-02-24 07:48:00,12.0,7.5,30.09,North,0,0.0,0.0,82,0.00,,,0.00,WUHU21623XXSP,2013-02-24 13:48:00,
2013-02-24 07:53:00,12.6,8.1,30.09,North,0,0.0,0.0,82,0.00,,,0.00,WUHU21623XXSP,2013-02-24 13:53:00,
2013-02-24 07:58:00,12.9,8.4,30.09,North,0,0.0,0.0,82,0.00,,,0.00,WUHU21623XXSP,2013-02-24 13:58:00,
2013-02-24 08:03:00,13.5,9.2,30.09,North,0,0.0,0.0,83,0.00,,,0.00,WUHU21623XXSP,2013-02-24 14:03:00,
2013-02-24 08:08:00,14.5,10.3,30.10,North,0,0.0,0.0,83,0.00,,,0.00,WUHU21623XXSP,2013-02-24 14:08:00,
2013-02-24 08:13:00,15.1,10.8,30.10,North,0,0.0,0.0,83,0.00,,,0.00,WUHU21623XXSP,2013-02-24 14:13:00,
2013-02-24 08:18:00,16.0,11.7,30.10,North,0,0.0,0.0,83,0.00,,,0.00,WUHU21623XXSP,2013-02-24 14:18:00,
2013-02-24 08:23:00,17.2,12.8,30.10,North,0,0.0,0.0,83,0.00,,,0.00,WUHU21623XXSP,2013-02-24 14:23:00,
2013-02-24 08:28:00,17.8,13.1,30.10,North,0,0.0,0.0,82,0.00,,,0.00,WUHU21623XXSP,2013-02-24 14:28:00,
2013-02-24 08:33:00,18.7,14.3,30.10,North,0,0.0,0.0,83,0.00,,,0.00,WUHU21623XXSP,2013-02-24 14:33:00,
2013-02-24 08:38:00,19.9,15.2,30.10,North,0,0.0,0.0,82,0.00,,,0.00,WUHU21623XXSP,2013-02-24 14:38:00,
2013-02-24 08:43:00,21.0,16.3,30.10,North,0,0.0,0.0,82,0.00,,,0.00,WUHU21623XXSP,2013-02-24 14:43:00,
2013-02-24 08:48:00,21.9,17.2,30.10,North,0,0.0,0.0,82,0.00,,,0.00,WUHU21623XXSP,2013-02-24 14:48:00,
2013-02-24 08:53:00,23.4,18.7,30.10,North,0,0.0,0.0,82,0.00,,,0.00,WUHU21623XXSP,2013-02-24 14:53:00,
2013-02-24 08:58:00,24.1,19.1,30.10,North,0,0.0,0.0,81,0.00,,,0.00,WUHU21623XXSP,2013-02-24 14:58:00,
2013-02-24 09:03:00,25.0,19.7,30.10,North,0,0.0,0.0,81,0.00,,,0.00,WUHU21623XXSP,2013-02-24 15:03:00,
2013-02-24 09:08:00,26.2,20.9,30.10,North,0,0.0,0.0,80,0.00,,,0.00,WUHU21623XXSP,2013-02-24 15:08:00,
2013-02-24 09:13:00,27.0,21.3,30.10,North,0,0.0,0.0,79,0.00,,,0.00,WUHU21623XXSP,2013-02-24 15:13:00,
2013-02-24 09:18:00,28.0,22.0,30.10,North,0,0.0,0.0,78,0.00,,,0.00,WUHU21623XXSP,2013-02-24 15:18:00,
2013-02-24 09:23:00,28.4,21.8,30.10,North,0,0.0,0.0,76,0.00,,,0.00,WUHU21623XXSP,2013-02-24 15:23:00,
2013-02-24 09:28:00,28.8,21.8,30.10,North,0,0.0,0.0,75,0.00,,,0.00,WUHU21623XXSP,2013-02-24 15:28:00,
2013-02-24 09:33:00,29.5,22.2,30.10,North,0,0.0,0.0,75,0.00,,,0.00,WUHU21623XXSP,2013-02-24 15:33:00,
2013-02-24 09:38:00,30.0,22.7,30.10,North,0,0.0,0.0,74,0.00,,,0.00,WUHU21623XXSP,2013-02-24 15:38:00,
2013-02-24 09:43:00,30.6,22.9,30.10,North,0,0.0,0.0,73,0.00,,,0.00,WUHU21623XXSP,2013-02-24 15:43:00,
2013-02-24 09:48:00,31.3,23.3,30.10,North,0,0.0,0.0,72,0.00,,,0.00,WUHU21623XXSP,2013-02-24 15:48:00,
2013-02-24 09:53:00,31.8,23.5,30.10,North,0,0.0,0.0,71,0.00,,,0.00,WUHU21623XXSP,2013-02-24 15:53:00,
2013-02-24 09:58:00,32.7,24.3,30.10,North,0,0.0,0.0,71,0.00,,,0.00,WUHU21623XXSP,2013-02-24 15:58:00,
2013-02-24 10:03:00,34.0,25.2,30.11,North,0,0.0,0.0,70,0.00,,,0.00,WUHU21623XXSP,2013-02-24 16:03:00,
2013-02-24 10:08:00,34.5,25.3,30.11,North,0,0.0,0.0,69,0.00,,,0.00,WUHU21623XXSP,2013-02-24 16:08:00,
2013-02-24 10:13:00,35.2,25.7,30.11,North,0,0.0,0.0,68,0.00,,,0.00,WUHU21623XXSP,2013-02-24 16:13:00,
2013-02-24 10:19:00,35.8,25.5,30.11,North,0,0.0,0.0,66,0.00,,,0.00,WUHU21623XXSP,2013-02-24 16:19:00,
2013-02-24 10:24:00,35.8,25.1,30.11,North,0,0.0,0.0,65,0.00,,,0.00,WUHU21623XXSP,2013-02-24 16:24:00,
2013-02-24 10:29:00,35.8,25.1,30.12,North,0,0.0,0.0,65,0.00,,,0.00,WUHU21623XXSP,2013-02-24 16:29:00,
2013-02-24 10:34:00,36.3,25.7,30.11,North,0,0.0,0.0,65,0.00,,,0.00,WUHU21623XXSP,2013-02-24 16:34:00,
2013-02-24 10:39:00,36.7,25.5,30.12,North,0,0.0,0.0,64,0.00,,,0.00,WUHU21623XXSP,2013-02-24 16:39:00,
2013-02-24 10:44:00,36.9,25.8,30.12,North,0,0.0,0.0,64,0.00,,,0.00,WUHU21623XXSP,2013-02-24 16:44:00,
2013-02-24 10:49:00,37.6,25.7,30.12,North,0,0.0,0.0,62,0.00,,,0.00,WUHU21623XXSP,2013-02-24 16:49:00,
2013-02-24 10:54:00,37.9,26.0,30.12,North,0,0.0,0.0,62,0.00,,,0.00,WUHU21623XXSP,2013-02-24 16:54:00,
2013-02-24 10:59:00,38.5,26.5,30.11,North,0,0.0,0.0,62,0.00,,,0.00,WUHU21623XXSP,2013-02-24 16:59:00,
2013-02-24 11:04:00,39.4,27.0,30.11,North,0,0.0,0.0,61,0.00,,,0.00,WUHU21623XXSP,2013-02-24 17:04:00,
2013-02-24 11:09:00,39.7,27.0,30.11,North,0,0.0,0.0,60,0.00,,,0.00,WUHU21623XXSP,2013-02-24 17:09:00,
2013-02-24 11:14:00,39.9,26.7,30.11,North,0,0.0,0.0,59,0.00,,,0.00,WUHU21623XXSP,2013-02-24 17:14:00,
2013-02-24 11:19:00,39.9,26.7,30.11,North,0,0.0,0.0,59,0.00,,,0.00,WUHU21623XXSP,2013-02-24 17:19:00,
2013-02-24 11:24:00,40.1,26.4,30.11,North,0,0.0,0.0,58,0.00,,,0.00,WUHU21623XXSP,2013-02-24 17:24:00,
2013-02-24 11:29:00,40.1,26.0,30.11,North,0,0.0,0.0,57,0.00,,,0.00,WUHU21623XXSP,2013-02-24 17:29:00,
2013-02-24 11:34:00,40.6,26.5,30.11,North,0,0.0,0.0,57,0.00,,,0.00,WUHU21623XXSP,2013-02-24 17:34:00,
2013-02-24 11:39:00,41.2,27.0,30.11,North,0,0.0,0.0,57,0.00,,,0.00,WUHU21623XXSP,2013-02-24 17:39:00,
2013-02-24 11:44:00,41.4,27.2,30.11,North,0,0.0,0.0,57,0.00,,,0.00,WUHU21623XXSP,2013-02-24 17:44:00,
2013-02-24 11:49:00,41.5,26.9,30.10,North,0,0.0,0.0,56,0.00,,,0.00,WUHU21623XXSP,2013-02-24 17:49:00,
2013-02-24 11:54:00,41.9,26.8,30.10,North,0,0.0,0.0,55,0.00,,,0.00,WUHU21623XXSP,2013-02-24 17:54:00,
2013-02-24 11:59:00,41.9,26.8,30.10,North,0,0.0,0.0,55,0.00,,,0.00,WUHU21623XXSP,2013-02-24 17:59:00,
2013-02-24 12:04:00,42.6,27.0,30.09,North,0,0.0,0.0,55,0.00,,,0.00,WUHU21623XXSP,2013-02-24 18:04:00,
2013-02-24 12:09:00,43.0,27.4,30.09,North,0,0.0,0.0,54,0.00,,,0.00,WUHU21623XXSP,2013-02-24 18:09:00,
2013-02-24 12:14:00,43.3,27.3,30.09,North,0,0.0,0.0,53,0.00,,,0.00,WUHU21623XXSP,2013-02-24 18:14:00,
2013-02-24 12:19:00,43.5,27.5,30.09,North,0,0.0,0.0,53,0.00,,,0.00,WUHU21623XXSP,2013-02-24 18:19:00,
2013-02-24 12:24:00,43.7,27.6,30.09,North,0,0.0,0.0,53,0.00,,,0.00,WUHU21623XXSP,2013-02-24 18:24:00,
2013-02-24 12:29:00,43.9,27.8,30.09,North,0,0.0,0.0,53,0.00,,,0.00,WUHU21623XXSP,2013-02-24 18:29:00,
2013-02-24 12:34:00,44.1,28.0,30.08,North,0,0.0,0.0,53,0.00,,,0.00,WUHU21623XXSP,2013-02-24 18:34:00,
2013-02-24 12:39:00,44.1,27.5,30.09,North,0,0.0,0.0,52,0.00,,,0.00,WUHU21623XXSP,2013-02-24 18:39:00,
2013-02-24 12:44:00,43.7,27.2,30.09,North,0,0.0,0.0,52,0.00,,,0.00,WUHU21623XXSP,2013-02-24 18:44:00,
2013-02-24 12:49:00,44.2,28.1,30.08,North,0,0.0,0.0,53,0.00,,,0.00,WUHU21623XXSP,2013-02-24 18:49:00,
2013-02-24 12:54:00,44.4,27.9,30.07,North,0,0.0,0.0,52,0.00,,,0.00,WUHU21623XXSP,2013-02-24 18:54:00,
2013-02-24 12:59:00,45.0,28.2,30.07,North,0,0.0,0.0,52,0.00,,,0.00,WUHU21623XXSP,2013-02-24 18:59:00,
2013-02-24 13:04:00,45.0,27.9,30.08,North,0,0.0,0.0,51,0.00,,,0.00,WUHU21623XXSP,2013-02-24 19:04:00,
2013-02-24 13:09:00,45.0,28.4,30.07,North,0,0.0,0.0,52,0.00,,,0.00,WUHU21623XXSP,2013-02-24 19:09:00,
2013-02-24 13:14:00,45.1,28.5,30.07,North,0,0.0,0.0,52,0.00,,,0.00,WUHU21623XXSP,2013-02-24 19:14:00,
2013-02-24 13:19:00,45.3,28.2,30.07,North,0,0.0,0.0,51,0.00,,,0.00,WUHU21623XXSP,2013-02-24 19:19:00,
2013-02-24 13:24:00,45.1,28.1,30.07,North,0,0.0,0.0,51,0.00,,,0.00,WUHU21623XXSP,2013-02-24 19:24:00,
2013-02-24 13:29:00,45.0,27.9,30.07,North,0,0.0,0.0,51,0.00,,,0.00,WUHU21623XXSP,2013-02-24 19:29:00,
2013-02-24 13:34:00,44.8,27.3,30.07,North,0,0.0,0.0,50,0.00,,,0.00,WUHU21623XXSP,2013-02-24 19:34:00,
2013-02-24 13:39:00,44.6,27.6,30.07,North,0,0.0,0.0,51,0.00,,,0.00,WUHU21623XXSP,2013-02-24 19:39:00,
2013-02-24 13:44:00,44.4,27.4,30.07,North,0,0.0,0.0,51,0.00,,,0.00,WUHU21623XXSP,2013-02-24 19:44:00,
2013-02-24 13:49:00,45.0,27.9,30.06,North,0,0.0,0.0,51,0.00,,,0.00,WUHU21623XXSP,2013-02-24 19:49:00,
2013-02-24 13:54:00,44.8,27.3,30.06,North,0,0.0,0.0,50,0.00,,,0.00,WUHU21623XXSP,2013-02-24 19:54:00,
2013-02-24 13:59:00,44.1,26.7,30.06,North,0,0.0,0.0,50,0.00,,,0.00,WUHU21623XXSP,2013-02-24 19:59:00,
2013-02-24 14:04:00,43.7,26.3,30.06,North,0,0.0,0.0,50,0.00,,,0.00,WUHU21623XXSP,2013-02-24 20:04:00,
2013-02-24 14:09:00,43.5,26.2,30.06,North,0,0.0,0.0,50,0.00,,,0.00,WUHU21623XXSP,2013-02-24 20:09:00,
2013-02-24 14:14:00,43.5,26.6,30.05,North,0,0.0,0.0,51,0.00,,,0.00,WUHU21623XXSP,2013-02-24 20:14:00,
2013-02-24 14:19:00,43.7,26.8,30.05,North,0,0.0,0.0,51,0.00,,,0.00,WUHU21623XXSP,2013-02-24 20:19:00,
2013-02-24 14:24:00,43.7,26.8,30.05,North,0,0.0,0.0,51,0.00,,,0.00,WUHU21623XXSP,2013-02-24 20:24:00,
2013-02-24 14:29:00,43.5,26.6,30.05,North,0,0.0,0.0,51,0.00,,,0.00,WUHU21623XXSP,2013-02-24 20:29:00,
2013-02-24 14:34:00,43.7,26.8,30.04,North,0,0.0,0.0,51,0.00,,,0.00,WUHU21623XXSP,2013-02-24 20:34:00,
2013-02-24 14:39:00,43.7,26.3,30.05,North,0,0.0,0.0,50,0.00,,,0.00,WUHU21623XXSP,2013-02-24 20:39:00,
2013-02-24 14:44:00,43.7,26.8,30.05,North,0,0.0,0.0,51,0.00,,,0.00,WUHU21623XXSP,2013-02-24 20:44:00,
2013-02-24 14:49:00,43.5,26.8,30.05,North,0,0.0,0.0,50,0.00,,,0.00,WUHU21623XXSP,2013-02-24 20:49:00,
2013-02-24 14:54:00,43.3,26.2,30.05,North,0,0.0,0.0,50,0.00,,,0.00,WUHU21623XXSP,2013-02-24 20:54:00,
2013-02-24 14:59:00,43.3,26.4,30.05,North,0,0.0,0.0,51,0.00,,,0.00,WUHU21623XXSP,2013-02-24 20:59:00,
2013-02-24 15:04:00,43.5,26.6,30.04,North,0,0.0,0.0,51,0.00,,,0.00,WUHU21623XXSP,2013-02-24 21:04:00,
2013-02-24 15:09:00,43.3,26.0,30.04,North,0,0.0,0.0,50,0.00,,,0.00,WUHU21623XXSP,2013-02-24 21:09:00,
2013-02-24 15:14:00,43.2,25.8,30.04,North,0,0.0,0.0,50,0.00,,,0.00,WUHU21623XXSP,2013-02-24 21:14:00,
2013-02-24 15:19:00,43.2,25.8,30.04,North,0,0.0,0.0,50,0.00,,,0.00,WUHU21623XXSP,2013-02-24 21:19:00,
2013-02-24 15:24:00,43.0,25.8,30.04,North,0,0.0,0.0,50,0.00,,,0.00,WUHU21623XXSP,2013-02-24 21:24:00,
2013-02-24 15:29:00,43.0,26.1,30.03,North,0,0.0,0.0,51,0.00,,,0.00,WUHU21623XXSP,2013-02-24 21:29:00,
2013-02-24 15:34:00,43.0,25.7,30.03,North,0,0.0,0.0,50,0.00,,,0.00,WUHU21623XXSP,2013-02-24 21:34:00,
2013-02-24 15:39:00,43.0,26.1,30.03,North,0,0.0,0.0,51,0.00,,,0.00,WUHU21623XXSP,2013-02-24 21:39:00,
2013-02-24 15:44:00,42.6,25.3,30.02,North,0,0.0,0.0,50,0.00,,,0.00,WUHU21623XXSP,2013-02-24 21:44:00,
2013-02-24 15:49:00,42.6,25.8,30.02,North,0,0.0,0.0,51,0.00,,,0.00,WUHU21623XXSP,2013-02-24 21:49:00,
2013-02-24 15:54:00,42.6,26.2,30.02,North,0,0.0,0.0,52,0.00,,,0.00,WUHU21623XXSP,2013-02-24 21:54:00,
2013-02-24 15:59:00,42.4,26.5,30.02,North,0,0.0,0.0,53,0.00,,,0.00,WUHU21623XXSP,2013-02-24 21:59:00,
2013-02-24 16:04:00,42.4,26.5,30.02,North,0,0.0,0.0,53,0.00,,,0.00,WUHU21623XXSP,2013-02-24 22:04:00,
2013-02-24 16:09:00,42.4,26.5,30.02,North,0,0.0,0.0,53,0.00,,,0.00,WUHU21623XXSP,2013-02-24 22:09:00,
2013-02-24 16:14:00,42.3,26.5,30.02,North,0,0.0,0.0,52,0.00,,,0.00,WUHU21623XXSP,2013-02-24 22:14:00,
2013-02-24 16:19:00,42.1,25.7,30.02,North,0,0.0,0.0,53,0.00,,,0.00,WUHU21623XXSP,2013-02-24 22:19:00,
2013-02-24 16:24:00,42.1,26.1,30.02,North,0,0.0,0.0,53,0.00,,,0.00,WUHU21623XXSP,2013-02-24 22:24:00,
2013-02-24 16:29:00,42.1,26.1,30.02,North,0,0.0,0.0,53,0.00,,,0.00,WUHU21623XXSP,2013-02-24 22:29:00,
2013-02-24 16:34:00,42.1,26.1,30.02,North,0,0.0,0.0,53,0.00,,,0.00,WUHU21623XXSP,2013-02-24 22:34:00,
2013-02-24 16:39:00,42.1,26.1,30.02,North,0,0.0,0.0,53,0.00,,,0.00,WUHU21623XXSP,2013-02-24 22:39:00,
2013-02-24 16:44:00,41.9,25.9,30.02,North,0,0.0,0.0,53,0.00,,,0.00,WUHU21623XXSP,2013-02-24 22:44:00,
2013-02-24 16:49:00,41.9,25.9,30.02,North,0,0.0,0.0,53,0.00,,,0.00,WUHU21623XXSP,2013-02-24 22:49:00,
2013-02-24 16:54:00,41.7,26.2,30.02,North,0,0.0,0.0,54,0.00,,,0.00,WUHU21623XXSP,2013-02-24 22:54:00,
2013-02-24 16:59:00,41.5,26.2,30.02,North,0,0.0,0.0,54,0.00,,,0.00,WUHU21623XXSP,2013-02-24 22:59:00,
2013-02-24 17:04:00,41.4,26.0,30.02,North,0,0.0,0.0,54,0.00,,,0.00,WUHU21623XXSP,2013-02-24 23:04:00,
2013-02-24 17:09:00,41.2,26.1,30.01,North,0,0.0,0.0,55,0.00,,,0.00,WUHU21623XXSP,2013-02-24 23:09:00,
2013-02-24 17:14:00,41.0,26.1,30.01,North,0,0.0,0.0,55,0.00,,,0.00,WUHU21623XXSP,2013-02-24 23:14:00,
2013-02-24 17:19:00,40.8,25.8,30.01,North,0,0.0,0.0,55,0.00,,,0.00,WUHU21623XXSP,2013-02-24 23:19:00,
2013-02-24 17:24:00,40.6,26.1,30.01,North,0,0.0,0.0,56,0.00,,,0.00,WUHU21623XXSP,2013-02-24 23:24:00,
2013-02-24 17:29:00,39.9,25.7,30.01,North,0,0.0,0.0,56,0.00,,,0.00,WUHU21623XXSP,2013-02-24 23:29:00,
2013-02-24 17:34:00,39.7,25.6,30.01,North,0,0.0,0.0,57,0.00,,,0.00,WUHU21623XXSP,2013-02-24 23:34:00,
2013-02-24 17:39:00,39.4,25.3,30.01,North,0,0.0,0.0,57,0.00,,,0.00,WUHU21623XXSP,2013-02-24 23:39:00,
2013-02-24 17:44:00,39.0,25.4,30.01,North,0,0.0,0.0,58,0.00,,,0.00,WUHU21623XXSP,2013-02-24 23:44:00,
2013-02-24 17:49:00,39.0,25.4,30.01,North,0,0.0,0.0,58,0.00,,,0.00,WUHU21623XXSP,2013-02-24 23:49:00,
2013-02-24 17:54:00,38.5,25.7,30.01,North,0,0.0,0.0,59,0.00,,,0.00,WUHU21623XXSP,2013-02-24 23:54:00,
2013-02-24 17:59:00,38.1,25.0,30.02,North,0,0.0,0.0,59,0.00,,,0.00,WUHU21623XXSP,2013-02-24 23:59:00,
2013-02-24 18:04:00,37.9,24.9,30.02,North,0,0.0,0.0,59,0.00,,,0.00,WUHU21623XXSP,2013-02-25 00:04:00,
2013-02-24 18:09:00,37.6,25.0,30.02,North,0,0.0,0.0,60,0.00,,,0.00,WUHU21623XXSP,2013-02-25 00:09:00,
2013-02-24 18:14:00,37.4,24.8,30.03,North,0,0.0,0.0,60,0.00,,,0.00,WUHU21623XXSP,2013-02-25 00:14:00,
2013-02-24 18:19:00,37.2,25.2,30.02,North,0,0.0,0.0,61,0.00,,,0.00,WUHU21623XXSP,2013-02-25 00:19:00,
2013-02-24 18:24:00,36.9,24.8,30.02,North,0,0.0,0.0,61,0.00,,,0.00,WUHU21623XXSP,2013-02-25 00:24:00,
2013-02-24 18:29:00,36.7,24.9,30.02,North,0,0.0,0.0,62,0.00,,,0.00,WUHU21623XXSP,2013-02-25 00:29:00,
2013-02-24 18:34:00,36.3,24.4,30.02,North,0,0.0,0.0,62,0.00,,,0.00,WUHU21623XXSP,2013-02-25 00:34:00,
2013-02-24 18:39:00,36.1,24.5,30.03,North,0,0.0,0.0,63,0.00,,,0.00,WUHU21623XXSP,2013-02-25 00:39:00,
2013-02-24 18:44:00,36.0,24.6,30.03,North,0,0.0,0.0,63,0.00,,,0.00,WUHU21623XXSP,2013-02-25 00:44:00,
2013-02-24 18:49:00,35.8,24.8,30.04,North,0,0.0,0.0,64,0.00,,,0.00,WUHU21623XXSP,2013-02-25 00:49:00,
2013-02-24 18:54:00,35.4,24.4,30.03,North,0,0.0,0.0,64,0.00,,,0.00,WUHU21623XXSP,2013-02-25 00:54:00,
2013-02-24 18:59:00,35.4,24.8,30.03,North,0,0.0,0.0,65,0.00,,,0.00,WUHU21623XXSP,2013-02-25 00:59:00,
2013-02-24 19:04:00,35.4,24.8,30.03,North,0,0.0,0.0,65,0.00,,,0.00,WUHU21623XXSP,2013-02-25 01:04:00,
2013-02-24 19:09:00,35.4,24.8,30.03,North,0,0.0,0.0,65,0.00,,,0.00,WUHU21623XXSP,2013-02-25 01:09:00,
2013-02-24 19:14:00,35.4,25.2,30.03,North,0,0.0,0.0,66,0.00,,,0.00,WUHU21623XXSP,2013-02-25 01:14:00,
2013-02-24 19:19:00,35.4,24.8,30.03,North,0,0.0,0.0,65,0.00,,,0.00,WUHU21623XXSP,2013-02-25 01:19:00,
2013-02-24 19:24:00,35.4,25.2,30.03,North,0,0.0,0.0,66,0.00,,,0.00,WUHU21623XXSP,2013-02-25 01:24:00,
2013-02-24 19:29:00,35.2,25.0,30.03,North,0,0.0,0.0,66,0.00,,,0.00,WUHU21623XXSP,2013-02-25 01:29:00,
2013-02-24 19:34:00,35.2,25.0,30.02,North,0,0.0,0.0,66,0.00,,,0.00,WUHU21623XXSP,2013-02-25 01:34:00,
2013-02-24 19:40:00,35.1,24.8,30.03,North,0,0.0,0.0,66,0.00,,,0.00,WUHU21623XXSP,2013-02-25 01:40:00,
2013-02-24 19:45:00,34.9,25.0,30.03,North,0,0.0,0.0,67,0.00,,,0.00,WUHU21623XXSP,2013-02-25 01:45:00,
2013-02-24 19:50:00,34.9,25.0,30.03,North,0,0.0,0.0,67,0.00,,,0.00,WUHU21623XXSP,2013-02-25 01:50:00,
2013-02-24 19:55:00,34.7,25.0,30.03,North,0,0.0,0.0,67,0.00,,,0.00,WUHU21623XXSP,2013-02-25 01:55:00,
2013-02-24 20:00:00,34.7,24.8,30.03,North,0,0.0,0.0,67,0.00,,,0.00,WUHU21623XXSP,2013-02-25 02:00:00,
2013-02-24 20:05:00,34.7,24.8,30.03,North,0,0.0,0.0,67,0.00,,,0.00,WUHU21623XXSP,2013-02-25 02:05:00,
2013-02-24 20:10:00,34.5,24.6,30.03,North,0,0.0,0.0,67,0.00,,,0.00,WUHU21623XXSP,2013-02-25 02:10:00,
2013-02-24 20:15:00,34.3,24.8,30.03,North,0,0.0,0.0,68,0.00,,,0.00,WUHU21623XXSP,2013-02-25 02:15:00,
2013-02-24 20:20:00,34.3,24.8,30.02,North,0,0.0,0.0,68,0.00,,,0.00,WUHU21623XXSP,2013-02-25 02:20:00,
2013-02-24 20:25:00,34.3,24.8,30.03,North,0,0.0,0.0,68,0.00,,,0.00,WUHU21623XXSP,2013-02-25 02:25:00,
2013-02-24 20:30:00,34.3,24.8,30.03,North,0,0.0,0.0,68,0.00,,,0.00,WUHU21623XXSP,2013-02-25 02:30:00,
2013-02-24 20:35:00,34.3,24.8,30.03,North,0,0.0,0.0,68,0.00,,,0.00,WUHU21623XXSP,2013-02-25 02:35:00,
2013-02-24 20:40:00,34.2,25.0,30.02,North,0,0.0,0.0,69,0.00,,,0.00,WUHU21623XXSP,2013-02-25 02:40:00,
2013-02-24 20:45:00,34.2,25.0,30.02,North,0,0.0,0.0,69,0.00,,,0.00,WUHU21623XXSP,2013-02-25 02:45:00,
2013-02-24 20:50:00,34.2,25.0,30.02,North,0,0.0,0.0,69,0.00,,,0.00,WUHU21623XXSP,2013-02-25 02:50:00,
2013-02-24 20:55:00,34.0,24.8,30.03,North,0,0.0,0.0,69,0.00,,,0.00,WUHU21623XXSP,2013-02-25 02:55:00,
2013-02-24 21:00:00,34.0,24.8,30.02,North,0,0.0,0.0,69,0.00,,,0.00,WUHU21623XXSP,2013-02-25 03:00:00,
2013-02-24 21:05:00,33.8,24.6,30.03,North,0,0.0,0.0,69,0.00,,,0.00,WUHU21623XXSP,2013-02-25 03:05:00,
2013-02-24 21:10:00,33.6,24.5,30.02,North,0,0.0,0.0,69,0.00,,,0.00,WUHU21623XXSP,2013-02-25 03:10:00,
2013-02-24 21:15:00,33.6,24.5,30.03,North,0,0.0,0.0,69,0.00,,,0.00,WUHU21623XXSP,2013-02-25 03:15:00,
2013-02-24 21:20:00,33.4,24.3,30.03,North,0,0.0,0.0,69,0.00,,,0.00,WUHU21623XXSP,2013-02-25 03:20:00,
2013-02-24 21:25:00,33.4,24.3,30.03,North,0,0.0,0.0,70,0.00,,,0.00,WUHU21623XXSP,2013-02-25 03:25:00,
2013-02-24 21:30:00,33.3,24.5,30.03,North,0,0.0,0.0,70,0.00,,,0.00,WUHU21623XXSP,2013-02-25 03:30:00,
2013-02-24 21:35:00,33.1,24.3,30.04,North,0,0.0,0.0,70,0.00,,,0.00,WUHU21623XXSP,2013-02-25 03:35:00,
2013-02-24 21:40:00,32.9,24.2,30.04,North,0,0.0,0.0,70,0.00,,,0.00,WUHU21623XXSP,2013-02-25 03:40:00,
2013-02-24 21:45:00,32.7,24.0,30.04,North,0,0.0,0.0,70,0.00,,,0.00,WUHU21623XXSP,2013-02-25 03:45:00,
2013-02-24 21:50:00,32.7,24.0,30.04,North,0,0.0,0.0,70,0.00,,,0.00,WUHU21623XXSP,2013-02-25 03:50:00,
2013-02-24 21:55:00,32.4,23.8,30.05,North,0,0.0,0.0,70,0.00,,,0.00,WUHU21623XXSP,2013-02-25 03:55:00,
2013-02-24 22:00:00,32.2,23.5,30.05,North,0,0.0,0.0,70,0.00,,,0.00,WUHU21623XXSP,2013-02-25 04:00:00,
2013-02-24 22:05:00,32.2,23.5,30.05,North,0,0.0,0.0,71,0.00,,,0.00,WUHU21623XXSP,2013-02-25 04:05:00,
2013-02-24 22:10:00,31.8,23.7,30.05,North,0,0.0,0.0,71,0.00,,,0.00,WUHU21623XXSP,2013-02-25 04:10:00,
2013-02-24 22:15:00,31.8,23.5,30.05,North,0,0.0,0.0,71,0.00,,,0.00,WUHU21623XXSP,2013-02-25 04:15:00,
2013-02-24 22:20:00,31.6,23.6,30.05,North,0,0.0,0.0,72,0.00,,,0.00,WUHU21623XXSP,2013-02-25 04:20:00,
2013-02-24 22:25:00,31.6,23.6,30.05,North,0,0.0,0.0,72,0.00,,,0.00,WUHU21623XXSP,2013-02-25 04:25:00,
2013-02-24 22:30:00,31.5,23.6,30.05,North,0,0.0,0.0,72,0.00,,,0.00,WUHU21623XXSP,2013-02-25 04:30:00,
2013-02-24 22:35:00,31.3,23.3,30.05,North,0,0.0,0.0,72,0.00,,,0.00,WUHU21623XXSP,2013-02-25 04:35:00,
2013-02-24 22:40:00,31.1,23.1,30.05,North,0,0.0,0.0,72,0.00,,,0.00,WUHU21623XXSP,2013-02-25 04:40:00,
2013-02-24 22:45:00,31.1,23.1,30.05,North,0,0.0,0.0,72,0.00,,,0.00,WUHU21623XXSP,2013-02-25 04:45:00,
2013-02-24 22:50:00,30.9,23.3,30.04,North,0,0.0,0.0,73,0.00,,,0.00,WUHU21623XXSP,2013-02-25 04:50:00,
2013-02-24 22:55:00,30.7,23.1,30.04,North,0,0.0,0.0,73,0.00,,,0.00,WUHU21623XXSP,2013-02-25 04:55:00,
2013-02-24 23:00:00,30.7,23.1,30.04,North,0,0.0,0.0,73,0.00,,,0.00,WUHU21623XXSP,2013-02-25 05:00:00,
2013-02-24 23:03:00,30.7,23.1,30.04,North,0,0.0,0.0,73,0.00,,,0.00,WUHU21623XXSP,2013-02-25 05:03:00,
2013-02-24 23:08:00,30.7,23.1,30.04,North,0,0.0,0.0,73,0.00,,,0.00,WUHU21623XXSP,2013-02-25 05:08:00,
2013-02-24 23:10:00,30.7,23.1,30.04,North,0,0.0,0.0,73,0.00,,,0.00,WUHU21623XXSP,2013-02-25 05:10:00,
2013-02-24 23:15:00,30.6,23.2,30.04,North,0,0.0,0.0,74,0.00,,,0.00,WUHU21623XXSP,2013-02-25 05:15:00,
2013-02-24 23:20:00,30.6,23.2,30.04,North,0,0.0,0.0,74,0.00,,,0.00,WUHU21623XXSP,2013-02-25 05:20:00,
2013-02-24 23:25:00,30.6,23.2,30.04,North,0,0.0,0.0,74,0.00,,,0.00,WUHU21623XXSP,2013-02-25 05:25:00,
2013-02-24 23:30:00,30.6,23.2,30.05,North,0,0.0,0.0,74,0.00,,,0.00,WUHU21623XXSP,2013-02-25 05:30:00,
2013-02-24 23:35:00,30.6,23.2,30.05,North,0,0.0,0.0,74,0.00,,,0.00,WUHU21623XXSP,2013-02-25 05:35:00,
2013-02-24 23:40:00,30.4,23.0,30.05,North,0,0.0,0.0,74,0.00,,,0.00,WUHU21623XXSP,2013-02-25 05:40:00,
2013-02-24 23:45:00,30.4,23.0,30.05,North,0,0.0,0.0,74,0.00,,,0.00,WUHU21623XXSP,2013-02-25 05:45:00,
2013-02-24 23:50:00,30.0,22.7,30.05,North,0,0.0,0.0,74,0.00,,,0.00,WUHU21623XXSP,2013-02-25 05:50:00,
2013-02-24 23:55:00,30.0,22.7,30.05,North,0,0.0,0.0,74,0.00,,,0.00,WUHU21623XXSP,2013-02-25 05:55:00,